Aviation Digital Data Service (ADDS)

Output produced by METARs form (0749 UTC 24 May 2018)
found at http://www.aviationweather.gov/adds/metars/
 
KBWI 240654Z 26003KT 10SM CLR 17/14 A3009 RMK AO2 SLP188 T01670139 $
KBWI 240535Z 2406/2512 26004KT P6SM FEW250 
     FM241400 01006KT P6SM FEW250 
     FM250000 VRB03KT P6SM SKC
       
KMTN 240736Z AUTO 00000KT 10SM CLR 16/15 A3010 RMK AO2
KMTN 232320Z 2400/2424 30007KT P6SM SCT070 
     FM240300 VRB03KT P6SM FEW250 
     FM241200 36005KT P6SM SKC 
     FM241600 03008KT P6SM SKC AMD NOT SKED 2402/2412
       
KCGE 240735Z AUTO 00000KT 10SM CLR 16/15 A3008 RMK A01
KADW 240656Z AUTO 26004KT 10SM CLR 17/14 A3011 RMK AO2 SLP201 T01690136
TAF KADW 240100Z 2401/2507 35009KT 9999 FEW050 QNH3006INS WND 18009KT AFT 2501 TX28/2418Z TN17/2408Z
       
KCBE 240736Z AUTO 00000KT 1 3/4SM VV007 13/13 A3022 RMK AO1
KFME 240736Z AUTO 00000KT 10SM CLR 12/12 A3013 RMK AO1
KFDK 240735Z AUTO 00000KT 10SM CLR 14/14 A3015 RMK AO2 LTG DSNT E
KGAI 240656Z AUTO 00000KT 10SM CLR 14/13 A3013 RMK AO2 SLP228 T01390133
KHGR 240653Z AUTO 16003KT 10SM CLR 16/14 A3015 RMK AO2 SLP215 T01560139
K2W6 240737Z AUTO 26004KT 10SM CLR 15/13 A3011 RMK AO1
K2G4 240745Z AUTO 00000KT 10SM CLR 12/11 A3024 RMK AO1
KOXB 240653Z AUTO 32004KT 10SM CLR 16/14 A3007 RMK AO2 SLP181 T01610144
KSBY 240654Z AUTO 00000KT 10SM CLR 16/15 A3007 RMK AO2 SLP185 T01610150
KSBY 240540Z 2406/2506 VRB03KT P6SM SKC 
     FM241400 02006KT P6SM SKC 
     FM242000 08006KT P6SM SKC
       
KW29 240735Z AUTO 30005KT 7SM CLR 19/15 A3009 RMK AO2
KDMW 240735Z AUTO 00000KT 10SM CLR 16/14 A3013 RMK AO2